sensor_id;sensor_type;location;lat;lon;timestamp;P1;durP1;ratioP1;P2;durP2;ratioP2
53271;SDS011;39160;48.580;7.756;2024-01-06T00:01:11;4.28;;;1.55;;
53271;SDS011;39160;48.580;7.756;2024-01-06T00:06:04;3.13;;;1.58;;
53271;SDS011;39160;48.580;7.756;2024-01-06T00:10:55;2.65;;;1.80;;
53271;SDS011;39160;48.580;7.756;2024-01-06T00:15:45;3.85;;;1.40;;
53271;SDS011;39160;48.580;7.756;2024-01-06T00:20:36;2.88;;;1.38;;
53271;SDS011;39160;48.580;7.756;2024-01-06T00:25:27;1.98;;;1.17;;
53271;SDS011;39160;48.580;7.756;2024-01-06T00:30:17;4.13;;;1.75;;
53271;SDS011;39160;48.580;7.756;2024-01-06T00:35:08;2.92;;;1.15;;
53271;SDS011;39160;48.580;7.756;2024-01-06T00:39:59;2.83;;;1.33;;
53271;SDS011;39160;48.580;7.756;2024-01-06T00:44:50;1.27;;;0.90;;
53271;SDS011;39160;48.580;7.756;2024-01-06T00:49:40;3.50;;;1.38;;
53271;SDS011;39160;48.580;7.756;2024-01-06T00:54:31;6.00;;;1.60;;
53271;SDS011;39160;48.580;7.756;2024-01-06T00:59:22;3.70;;;1.00;;
53271;SDS011;39160;48.580;7.756;2024-01-06T01:04:12;3.08;;;0.95;;
53271;SDS011;39160;48.580;7.756;2024-01-06T01:09:03;3.22;;;1.25;;
53271;SDS011;39160;48.580;7.756;2024-01-06T01:13:54;2.15;;;1.10;;
53271;SDS011;39160;48.580;7.756;2024-01-06T01:18:45;3.72;;;1.55;;
53271;SDS011;39160;48.580;7.756;2024-01-06T01:23:35;3.10;;;1.85;;
53271;SDS011;39160;48.580;7.756;2024-01-06T01:28:26;3.05;;;1.40;;
53271;SDS011;39160;48.580;7.756;2024-01-06T01:33:17;2.92;;;1.30;;
53271;SDS011;39160;48.580;7.756;2024-01-06T01:38:08;1.85;;;1.40;;
53271;SDS011;39160;48.580;7.756;2024-01-06T01:42:59;6.60;;;1.15;;
53271;SDS011;39160;48.580;7.756;2024-01-06T01:47:49;2.47;;;1.15;;
53271;SDS011;39160;48.580;7.756;2024-01-06T01:52:41;3.78;;;1.20;;
53271;SDS011;39160;48.580;7.756;2024-01-06T01:57:32;2.85;;;1.75;;
53271;SDS011;39160;48.580;7.756;2024-01-06T02:02:23;2.83;;;1.33;;
53271;SDS011;39160;48.580;7.756;2024-01-06T02:07:14;3.75;;;1.45;;
53271;SDS011;39160;48.580;7.756;2024-01-06T02:12:04;2.53;;;1.02;;
53271;SDS011;39160;48.580;7.756;2024-01-06T02:16:55;2.58;;;1.15;;
53271;SDS011;39160;48.580;7.756;2024-01-06T02:21:51;4.00;;;1.42;;
53271;SDS011;39160;48.580;7.756;2024-01-06T02:26:42;2.80;;;1.08;;
53271;SDS011;39160;48.580;7.756;2024-01-06T02:31:33;4.82;;;1.40;;
53271;SDS011;39160;48.580;7.756;2024-01-06T02:36:24;3.75;;;1.40;;
53271;SDS011;39160;48.580;7.756;2024-01-06T02:41:14;4.53;;;2.45;;
53271;SDS011;39160;48.580;7.756;2024-01-06T02:46:06;2.42;;;1.23;;
53271;SDS011;39160;48.580;7.756;2024-01-06T02:50:57;1.35;;;1.13;;
53271;SDS011;39160;48.580;7.756;2024-01-06T02:55:47;1.58;;;0.98;;
53271;SDS011;39160;48.580;7.756;2024-01-06T03:00:38;5.47;;;1.42;;
53271;SDS011;39160;48.580;7.756;2024-01-06T03:05:29;3.05;;;1.50;;
53271;SDS011;39160;48.580;7.756;2024-01-06T03:10:19;2.20;;;1.50;;
53271;SDS011;39160;48.580;7.756;2024-01-06T03:15:10;3.50;;;1.13;;
53271;SDS011;39160;48.580;7.756;2024-01-06T03:20:01;1.77;;;0.93;;
53271;SDS011;39160;48.580;7.756;2024-01-06T03:24:52;2.22;;;1.02;;
53271;SDS011;39160;48.580;7.756;2024-01-06T03:29:42;1.95;;;1.38;;
53271;SDS011;39160;48.580;7.756;2024-01-06T03:34:33;2.60;;;1.23;;
53271;SDS011;39160;48.580;7.756;2024-01-06T03:39:24;5.10;;;1.60;;
53271;SDS011;39160;48.580;7.756;2024-01-06T03:44:15;1.70;;;1.27;;
53271;SDS011;39160;48.580;7.756;2024-01-06T03:49:05;3.38;;;1.25;;
53271;SDS011;39160;48.580;7.756;2024-01-06T03:53:56;2.35;;;1.33;;
53271;SDS011;39160;48.580;7.756;2024-01-06T03:58:47;2.13;;;1.00;;
53271;SDS011;39160;48.580;7.756;2024-01-06T04:03:38;2.78;;;1.02;;
53271;SDS011;39160;48.580;7.756;2024-01-06T04:08:32;2.08;;;1.45;;
53271;SDS011;39160;48.580;7.756;2024-01-06T04:13:22;3.08;;;1.58;;
53271;SDS011;39160;48.580;7.756;2024-01-06T04:18:14;1.58;;;1.10;;
53271;SDS011;39160;48.580;7.756;2024-01-06T04:23:05;3.15;;;1.52;;
53271;SDS011;39160;48.580;7.756;2024-01-06T04:27:55;4.22;;;1.60;;
53271;SDS011;39160;48.580;7.756;2024-01-06T04:32:46;2.97;;;1.33;;
53271;SDS011;39160;48.580;7.756;2024-01-06T04:37:38;2.35;;;1.10;;
53271;SDS011;39160;48.580;7.756;2024-01-06T04:42:29;1.83;;;1.15;;
53271;SDS011;39160;48.580;7.756;2024-01-06T04:47:19;3.38;;;1.80;;
53271;SDS011;39160;48.580;7.756;2024-01-06T04:52:10;2.53;;;1.00;;
53271;SDS011;39160;48.580;7.756;2024-01-06T04:57:01;2.63;;;1.40;;
53271;SDS011;39160;48.580;7.756;2024-01-06T05:01:52;2.03;;;1.10;;
53271;SDS011;39160;48.580;7.756;2024-01-06T05:06:44;4.60;;;1.20;;
53271;SDS011;39160;48.580;7.756;2024-01-06T05:11:34;2.30;;;0.93;;
53271;SDS011;39160;48.580;7.756;2024-01-06T05:16:25;5.80;;;1.13;;
53271;SDS011;39160;48.580;7.756;2024-01-06T05:21:16;3.13;;;1.20;;
53271;SDS011;39160;48.580;7.756;2024-01-06T05:26:07;3.97;;;1.60;;
53271;SDS011;39160;48.580;7.756;2024-01-06T05:30:57;5.15;;;1.60;;
53271;SDS011;39160;48.580;7.756;2024-01-06T05:35:48;1.77;;;1.10;;
53271;SDS011;39160;48.580;7.756;2024-01-06T05:40:38;1.38;;;1.20;;
53271;SDS011;39160;48.580;7.756;2024-01-06T05:45:29;2.13;;;1.20;;
53271;SDS011;39160;48.580;7.756;2024-01-06T05:50:20;2.55;;;1.13;;
53271;SDS011;39160;48.580;7.756;2024-01-06T05:55:10;1.55;;;1.25;;
53271;SDS011;39160;48.580;7.756;2024-01-06T06:00:01;11.65;;;1.58;;
53271;SDS011;39160;48.580;7.756;2024-01-06T06:04:52;2.75;;;2.03;;
53271;SDS011;39160;48.580;7.756;2024-01-06T06:09:43;3.28;;;1.63;;
53271;SDS011;39160;48.580;7.756;2024-01-06T06:14:33;1.95;;;1.33;;
53271;SDS011;39160;48.580;7.756;2024-01-06T06:19:24;2.38;;;1.30;;
53271;SDS011;39160;48.580;7.756;2024-01-06T06:24:15;3.42;;;1.65;;
53271;SDS011;39160;48.580;7.756;2024-01-06T06:29:05;4.90;;;1.95;;
53271;SDS011;39160;48.580;7.756;2024-01-06T06:33:56;4.43;;;1.40;;
53271;SDS011;39160;48.580;7.756;2024-01-06T06:38:46;1.85;;;1.52;;
53271;SDS011;39160;48.580;7.756;2024-01-06T06:43:37;1.92;;;0.98;;
53271;SDS011;39160;48.580;7.756;2024-01-06T06:48:28;1.77;;;1.50;;
53271;SDS011;39160;48.580;7.756;2024-01-06T06:53:18;3.70;;;2.15;;
53271;SDS011;39160;48.580;7.756;2024-01-06T06:58:09;3.30;;;1.90;;
53271;SDS011;39160;48.580;7.756;2024-01-06T07:03:00;3.78;;;2.30;;
53271;SDS011;39160;48.580;7.756;2024-01-06T07:07:51;3.67;;;2.25;;
53271;SDS011;39160;48.580;7.756;2024-01-06T07:12:41;9.27;;;2.03;;
53271;SDS011;39160;48.580;7.756;2024-01-06T07:17:32;3.38;;;2.00;;
53271;SDS011;39160;48.580;7.756;2024-01-06T07:22:23;3.88;;;2.38;;
53271;SDS011;39160;48.580;7.756;2024-01-06T07:27:13;5.60;;;2.70;;
53271;SDS011;39160;48.580;7.756;2024-01-06T07:32:05;4.18;;;1.83;;
53271;SDS011;39160;48.580;7.756;2024-01-06T07:36:58;6.63;;;2.33;;
53271;SDS011;39160;48.580;7.756;2024-01-06T07:41:50;6.13;;;2.35;;
53271;SDS011;39160;48.580;7.756;2024-01-06T07:46:41;2.47;;;1.92;;
53271;SDS011;39160;48.580;7.756;2024-01-06T07:51:32;3.08;;;1.70;;
53271;SDS011;39160;48.580;7.756;2024-01-06T07:56:24;3.30;;;2.38;;
53271;SDS011;39160;48.580;7.756;2024-01-06T08:01:15;2.78;;;1.83;;
53271;SDS011;39160;48.580;7.756;2024-01-06T08:06:06;4.50;;;1.77;;
53271;SDS011;39160;48.580;7.756;2024-01-06T08:10:57;3.55;;;2.28;;
53271;SDS011;39160;48.580;7.756;2024-01-06T08:15:47;5.78;;;2.70;;
53271;SDS011;39160;48.580;7.756;2024-01-06T08:20:38;4.55;;;1.90;;
53271;SDS011;39160;48.580;7.756;2024-01-06T08:25:28;3.67;;;2.05;;
53271;SDS011;39160;48.580;7.756;2024-01-06T08:30:19;2.85;;;1.50;;
53271;SDS011;39160;48.580;7.756;2024-01-06T08:35:10;3.55;;;1.98;;
53271;SDS011;39160;48.580;7.756;2024-01-06T08:40:01;2.70;;;2.22;;
53271;SDS011;39160;48.580;7.756;2024-01-06T08:44:53;3.58;;;2.17;;
53271;SDS011;39160;48.580;7.756;2024-01-06T08:49:43;3.30;;;1.77;;
53271;SDS011;39160;48.580;7.756;2024-01-06T08:54:34;5.50;;;2.20;;
53271;SDS011;39160;48.580;7.756;2024-01-06T08:59:25;2.70;;;1.65;;
53271;SDS011;39160;48.580;7.756;2024-01-06T09:04:16;3.40;;;2.15;;
53271;SDS011;39160;48.580;7.756;2024-01-06T09:09:06;4.72;;;2.95;;
53271;SDS011;39160;48.580;7.756;2024-01-06T09:13:58;5.10;;;2.08;;
53271;SDS011;39160;48.580;7.756;2024-01-06T09:18:49;3.65;;;2.45;;
53271;SDS011;39160;48.580;7.756;2024-01-06T09:23:40;5.82;;;2.75;;
53271;SDS011;39160;48.580;7.756;2024-01-06T09:28:30;7.32;;;3.55;;
53271;SDS011;39160;48.580;7.756;2024-01-06T09:33:22;4.35;;;2.63;;
53271;SDS011;39160;48.580;7.756;2024-01-06T09:38:13;4.22;;;2.60;;
53271;SDS011;39160;48.580;7.756;2024-01-06T09:43:03;4.82;;;2.80;;
53271;SDS011;39160;48.580;7.756;2024-01-06T09:47:54;5.25;;;2.85;;
53271;SDS011;39160;48.580;7.756;2024-01-06T09:52:46;3.00;;;2.00;;
53271;SDS011;39160;48.580;7.756;2024-01-06T09:57:45;4.88;;;2.30;;
53271;SDS011;39160;48.580;7.756;2024-01-06T10:02:35;4.38;;;1.92;;
53271;SDS011;39160;48.580;7.756;2024-01-06T10:07:26;3.85;;;2.17;;
53271;SDS011;39160;48.580;7.756;2024-01-06T10:12:17;3.67;;;2.13;;
53271;SDS011;39160;48.580;7.756;2024-01-06T10:17:08;2.55;;;2.15;;
53271;SDS011;39160;48.580;7.756;2024-01-06T10:21:58;2.53;;;2.33;;
53271;SDS011;39160;48.580;7.756;2024-01-06T10:26:52;2.58;;;1.77;;
53271;SDS011;39160;48.580;7.756;2024-01-06T10:31:42;5.43;;;1.73;;
53271;SDS011;39160;48.580;7.756;2024-01-06T10:36:33;5.68;;;2.42;;
53271;SDS011;39160;48.580;7.756;2024-01-06T10:41:25;2.90;;;1.90;;
53271;SDS011;39160;48.580;7.756;2024-01-06T10:46:20;2.65;;;1.90;;
53271;SDS011;39160;48.580;7.756;2024-01-06T10:51:14;2.00;;;1.80;;
53271;SDS011;39160;48.580;7.756;2024-01-06T10:56:05;3.35;;;1.77;;
53271;SDS011;39160;48.580;7.756;2024-01-06T11:00:59;3.13;;;2.13;;
53271;SDS011;39160;48.580;7.756;2024-01-06T11:05:50;1.85;;;1.52;;
53271;SDS011;39160;48.580;7.756;2024-01-06T11:10:41;5.30;;;1.85;;
53271;SDS011;39160;48.580;7.756;2024-01-06T11:15:38;2.60;;;1.80;;
53271;SDS011;39160;48.580;7.756;2024-01-06T11:20:33;9.30;;;1.83;;
53271;SDS011;39160;48.580;7.756;2024-01-06T11:25:24;3.75;;;1.63;;
53271;SDS011;39160;48.580;7.756;2024-01-06T11:30:22;2.22;;;1.35;;
53271;SDS011;39160;48.580;7.756;2024-01-06T11:35:14;4.32;;;1.50;;
53271;SDS011;39160;48.580;7.756;2024-01-06T11:45:12;2.60;;;1.42;;
53271;SDS011;39160;48.580;7.756;2024-01-06T11:50:04;2.28;;;1.50;;
53271;SDS011;39160;48.580;7.756;2024-01-06T11:54:54;3.80;;;1.38;;
53271;SDS011;39160;48.580;7.756;2024-01-06T11:59:47;2.78;;;1.35;;
53271;SDS011;39160;48.580;7.756;2024-01-06T12:04:38;2.60;;;1.85;;
53271;SDS011;39160;48.580;7.756;2024-01-06T12:09:32;3.08;;;1.65;;
53271;SDS011;39160;48.580;7.756;2024-01-06T12:14:23;3.08;;;1.25;;
53271;SDS011;39160;48.580;7.756;2024-01-06T12:19:14;2.92;;;1.45;;
53271;SDS011;39160;48.580;7.756;2024-01-06T12:24:17;3.30;;;1.83;;
53271;SDS011;39160;48.580;7.756;2024-01-06T12:29:10;1.58;;;1.38;;
53271;SDS011;39160;48.580;7.756;2024-01-06T12:34:01;3.63;;;1.40;;
53271;SDS011;39160;48.580;7.756;2024-01-06T12:38:54;2.00;;;1.63;;
53271;SDS011;39160;48.580;7.756;2024-01-06T12:43:46;2.42;;;1.88;;
53271;SDS011;39160;48.580;7.756;2024-01-06T12:48:38;3.97;;;1.67;;
53271;SDS011;39160;48.580;7.756;2024-01-06T12:53:28;3.97;;;2.08;;
53271;SDS011;39160;48.580;7.756;2024-01-06T12:58:19;2.67;;;1.98;;
53271;SDS011;39160;48.580;7.756;2024-01-06T13:03:09;1.90;;;1.50;;
53271;SDS011;39160;48.580;7.756;2024-01-06T13:08:00;1.98;;;1.40;;
53271;SDS011;39160;48.580;7.756;2024-01-06T13:12:52;2.15;;;1.50;;
53271;SDS011;39160;48.580;7.756;2024-01-06T13:17:42;3.90;;;2.10;;
53271;SDS011;39160;48.580;7.756;2024-01-06T13:22:33;3.92;;;2.25;;
53271;SDS011;39160;48.580;7.756;2024-01-06T13:27:24;2.38;;;1.65;;
53271;SDS011;39160;48.580;7.756;2024-01-06T13:32:17;3.22;;;1.70;;
53271;SDS011;39160;48.580;7.756;2024-01-06T13:37:09;4.25;;;1.73;;
53271;SDS011;39160;48.580;7.756;2024-01-06T13:42:00;5.07;;;2.67;;
53271;SDS011;39160;48.580;7.756;2024-01-06T13:46:53;3.63;;;1.73;;
53271;SDS011;39160;48.580;7.756;2024-01-06T13:51:44;2.47;;;1.40;;
53271;SDS011;39160;48.580;7.756;2024-01-06T13:56:35;2.83;;;1.67;;
53271;SDS011;39160;48.580;7.756;2024-01-06T14:01:27;1.95;;;1.38;;
53271;SDS011;39160;48.580;7.756;2024-01-06T14:06:17;2.60;;;1.75;;
53271;SDS011;39160;48.580;7.756;2024-01-06T14:11:08;2.92;;;1.70;;
53271;SDS011;39160;48.580;7.756;2024-01-06T14:15:58;2.70;;;1.17;;
53271;SDS011;39160;48.580;7.756;2024-01-06T14:20:49;2.08;;;1.15;;
53271;SDS011;39160;48.580;7.756;2024-01-06T14:25:41;5.90;;;1.58;;
53271;SDS011;39160;48.580;7.756;2024-01-06T14:30:33;3.17;;;1.83;;
53271;SDS011;39160;48.580;7.756;2024-01-06T14:35:23;3.20;;;1.63;;
53271;SDS011;39160;48.580;7.756;2024-01-06T14:40:14;3.75;;;2.00;;
53271;SDS011;39160;48.580;7.756;2024-01-06T14:45:05;2.88;;;1.55;;
53271;SDS011;39160;48.580;7.756;2024-01-06T14:49:58;2.15;;;1.38;;
53271;SDS011;39160;48.580;7.756;2024-01-06T14:54:48;3.60;;;1.75;;
53271;SDS011;39160;48.580;7.756;2024-01-06T14:59:39;2.63;;;1.63;;
53271;SDS011;39160;48.580;7.756;2024-01-06T15:04:30;5.03;;;2.28;;
53271;SDS011;39160;48.580;7.756;2024-01-06T15:09:20;3.33;;;2.10;;
53271;SDS011;39160;48.580;7.756;2024-01-06T15:14:14;4.00;;;1.88;;
53271;SDS011;39160;48.580;7.756;2024-01-06T15:19:04;2.75;;;2.13;;
53271;SDS011;39160;48.580;7.756;2024-01-06T15:23:57;3.45;;;1.95;;
53271;SDS011;39160;48.580;7.756;2024-01-06T15:28:48;4.88;;;1.70;;
53271;SDS011;39160;48.580;7.756;2024-01-06T15:33:39;3.40;;;1.50;;
53271;SDS011;39160;48.580;7.756;2024-01-06T15:38:32;3.00;;;1.67;;
53271;SDS011;39160;48.580;7.756;2024-01-06T15:43:22;3.15;;;1.65;;
53271;SDS011;39160;48.580;7.756;2024-01-06T15:48:13;3.35;;;1.98;;
53271;SDS011;39160;48.580;7.756;2024-01-06T15:53:04;3.63;;;1.73;;
53271;SDS011;39160;48.580;7.756;2024-01-06T15:57:54;4.35;;;2.40;;
53271;SDS011;39160;48.580;7.756;2024-01-06T16:02:45;2.55;;;1.38;;
53271;SDS011;39160;48.580;7.756;2024-01-06T16:07:35;4.47;;;2.45;;
53271;SDS011;39160;48.580;7.756;2024-01-06T16:12:26;2.75;;;2.38;;
53271;SDS011;39160;48.580;7.756;2024-01-06T16:17:19;3.53;;;1.85;;
53271;SDS011;39160;48.580;7.756;2024-01-06T16:22:09;2.88;;;1.98;;
53271;SDS011;39160;48.580;7.756;2024-01-06T16:27:00;4.85;;;2.10;;
53271;SDS011;39160;48.580;7.756;2024-01-06T16:31:51;3.33;;;2.03;;
53271;SDS011;39160;48.580;7.756;2024-01-06T16:36:41;3.70;;;1.85;;
53271;SDS011;39160;48.580;7.756;2024-01-06T16:41:32;12.40;;;5.28;;
53271;SDS011;39160;48.580;7.756;2024-01-06T16:46:23;5.20;;;2.78;;
53271;SDS011;39160;48.580;7.756;2024-01-06T16:51:14;3.42;;;2.20;;
53271;SDS011;39160;48.580;7.756;2024-01-06T16:56:05;3.35;;;2.03;;
53271;SDS011;39160;48.580;7.756;2024-01-06T17:00:56;2.55;;;1.60;;
53271;SDS011;39160;48.580;7.756;2024-01-06T17:05:47;2.75;;;1.98;;
53271;SDS011;39160;48.580;7.756;2024-01-06T17:10:37;4.68;;;2.22;;
53271;SDS011;39160;48.580;7.756;2024-01-06T17:15:28;5.45;;;2.40;;
53271;SDS011;39160;48.580;7.756;2024-01-06T17:20:19;2.05;;;1.60;;
53271;SDS011;39160;48.580;7.756;2024-01-06T17:25:09;5.03;;;2.08;;
53271;SDS011;39160;48.580;7.756;2024-01-06T17:30:02;3.17;;;1.80;;
53271;SDS011;39160;48.580;7.756;2024-01-06T17:34:54;4.05;;;1.80;;
53271;SDS011;39160;48.580;7.756;2024-01-06T17:39:45;3.78;;;1.80;;
53271;SDS011;39160;48.580;7.756;2024-01-06T17:44:35;3.85;;;2.33;;
53271;SDS011;39160;48.580;7.756;2024-01-06T17:49:28;2.63;;;1.45;;
53271;SDS011;39160;48.580;7.756;2024-01-06T17:54:20;2.20;;;1.67;;
53271;SDS011;39160;48.580;7.756;2024-01-06T17:59:10;3.80;;;2.25;;
53271;SDS011;39160;48.580;7.756;2024-01-06T18:04:02;2.92;;;1.80;;
53271;SDS011;39160;48.580;7.756;2024-01-06T18:08:52;4.22;;;2.03;;
53271;SDS011;39160;48.580;7.756;2024-01-06T18:13:43;3.03;;;2.00;;
53271;SDS011;39160;48.580;7.756;2024-01-06T18:18:34;5.68;;;2.92;;
53271;SDS011;39160;48.580;7.756;2024-01-06T18:23:24;3.78;;;2.25;;
53271;SDS011;39160;48.580;7.756;2024-01-06T18:28:15;4.22;;;2.22;;
53271;SDS011;39160;48.580;7.756;2024-01-06T18:33:06;3.00;;;1.83;;
53271;SDS011;39160;48.580;7.756;2024-01-06T18:37:56;6.25;;;2.30;;
53271;SDS011;39160;48.580;7.756;2024-01-06T18:42:47;3.90;;;2.33;;
53271;SDS011;39160;48.580;7.756;2024-01-06T18:47:37;3.17;;;1.98;;
53271;SDS011;39160;48.580;7.756;2024-01-06T18:52:31;4.07;;;2.08;;
53271;SDS011;39160;48.580;7.756;2024-01-06T18:57:23;6.18;;;2.50;;
53271;SDS011;39160;48.580;7.756;2024-01-06T19:02:14;5.90;;;2.53;;
53271;SDS011;39160;48.580;7.756;2024-01-06T19:07:05;5.55;;;2.90;;
53271;SDS011;39160;48.580;7.756;2024-01-06T19:11:57;3.85;;;2.50;;
53271;SDS011;39160;48.580;7.756;2024-01-06T19:16:48;4.13;;;2.83;;
53271;SDS011;39160;48.580;7.756;2024-01-06T19:21:40;6.00;;;3.33;;
53271;SDS011;39160;48.580;7.756;2024-01-06T19:26:30;4.93;;;2.60;;
53271;SDS011;39160;48.580;7.756;2024-01-06T19:31:21;4.47;;;2.72;;
53271;SDS011;39160;48.580;7.756;2024-01-06T19:36:12;6.05;;;2.75;;
53271;SDS011;39160;48.580;7.756;2024-01-06T19:41:03;5.78;;;3.00;;
53271;SDS011;39160;48.580;7.756;2024-01-06T19:45:55;4.00;;;2.22;;
53271;SDS011;39160;48.580;7.756;2024-01-06T19:50:45;7.72;;;2.38;;
53271;SDS011;39160;48.580;7.756;2024-01-06T19:55:36;5.20;;;2.42;;
53271;SDS011;39160;48.580;7.756;2024-01-06T20:00:27;3.15;;;2.03;;
53271;SDS011;39160;48.580;7.756;2024-01-06T20:05:20;3.97;;;2.25;;
53271;SDS011;39160;48.580;7.756;2024-01-06T20:10:11;3.70;;;2.25;;
53271;SDS011;39160;48.580;7.756;2024-01-06T20:15:02;4.65;;;2.60;;
53271;SDS011;39160;48.580;7.756;2024-01-06T20:19:53;4.43;;;2.53;;
53271;SDS011;39160;48.580;7.756;2024-01-06T20:24:44;3.63;;;2.20;;
53271;SDS011;39160;48.580;7.756;2024-01-06T20:29:34;6.80;;;2.65;;
53271;SDS011;39160;48.580;7.756;2024-01-06T20:34:25;4.88;;;2.15;;
53271;SDS011;39160;48.580;7.756;2024-01-06T20:39:16;3.67;;;2.58;;
53271;SDS011;39160;48.580;7.756;2024-01-06T20:44:10;4.25;;;2.55;;
53271;SDS011;39160;48.580;7.756;2024-01-06T20:49:00;4.43;;;2.72;;
53271;SDS011;39160;48.580;7.756;2024-01-06T20:53:51;5.60;;;2.47;;
53271;SDS011;39160;48.580;7.756;2024-01-06T20:58:42;4.75;;;2.35;;
53271;SDS011;39160;48.580;7.756;2024-01-06T21:03:36;5.70;;;2.90;;
53271;SDS011;39160;48.580;7.756;2024-01-06T21:08:28;3.95;;;2.50;;
53271;SDS011;39160;48.580;7.756;2024-01-06T21:13:19;5.53;;;2.50;;
53271;SDS011;39160;48.580;7.756;2024-01-06T21:18:10;3.95;;;2.72;;
53271;SDS011;39160;48.580;7.756;2024-01-06T21:23:01;6.78;;;4.05;;
53271;SDS011;39160;48.580;7.756;2024-01-06T21:27:53;4.07;;;2.65;;
53271;SDS011;39160;48.580;7.756;2024-01-06T21:32:43;5.68;;;2.35;;
53271;SDS011;39160;48.580;7.756;2024-01-06T21:37:36;4.72;;;2.55;;
53271;SDS011;39160;48.580;7.756;2024-01-06T21:42:28;3.00;;;2.17;;
53271;SDS011;39160;48.580;7.756;2024-01-06T21:47:19;3.67;;;2.42;;
53271;SDS011;39160;48.580;7.756;2024-01-06T21:52:09;9.25;;;3.03;;
53271;SDS011;39160;48.580;7.756;2024-01-06T21:57:00;4.18;;;2.90;;
53271;SDS011;39160;48.580;7.756;2024-01-06T22:01:51;5.30;;;2.97;;
53271;SDS011;39160;48.580;7.756;2024-01-06T22:06:41;4.43;;;2.78;;
53271;SDS011;39160;48.580;7.756;2024-01-06T22:11:36;4.68;;;2.85;;
53271;SDS011;39160;48.580;7.756;2024-01-06T22:16:28;5.50;;;3.05;;
53271;SDS011;39160;48.580;7.756;2024-01-06T22:21:18;6.13;;;3.55;;
53271;SDS011;39160;48.580;7.756;2024-01-06T22:26:09;5.10;;;3.30;;
53271;SDS011;39160;48.580;7.756;2024-01-06T22:30:59;18.27;;;9.40;;
53271;SDS011;39160;48.580;7.756;2024-01-06T22:35:52;12.65;;;7.43;;
53271;SDS011;39160;48.580;7.756;2024-01-06T22:40:43;7.85;;;4.43;;
53271;SDS011;39160;48.580;7.756;2024-01-06T22:45:34;6.72;;;3.83;;
53271;SDS011;39160;48.580;7.756;2024-01-06T22:50:24;5.90;;;3.72;;
53271;SDS011;39160;48.580;7.756;2024-01-06T22:55:15;6.57;;;3.35;;
53271;SDS011;39160;48.580;7.756;2024-01-06T23:00:06;6.57;;;3.65;;
53271;SDS011;39160;48.580;7.756;2024-01-06T23:05:06;7.47;;;3.08;;
53271;SDS011;39160;48.580;7.756;2024-01-06T23:09:58;4.78;;;2.85;;
53271;SDS011;39160;48.580;7.756;2024-01-06T23:14:48;8.98;;;3.05;;
53271;SDS011;39160;48.580;7.756;2024-01-06T23:19:39;5.72;;;2.97;;
53271;SDS011;39160;48.580;7.756;2024-01-06T23:24:31;5.85;;;3.15;;
53271;SDS011;39160;48.580;7.756;2024-01-06T23:29:22;5.07;;;2.55;;
53271;SDS011;39160;48.580;7.756;2024-01-06T23:34:13;5.95;;;3.25;;
53271;SDS011;39160;48.580;7.756;2024-01-06T23:39:04;6.80;;;2.95;;
53271;SDS011;39160;48.580;7.756;2024-01-06T23:43:55;8.00;;;2.95;;
53271;SDS011;39160;48.580;7.756;2024-01-06T23:48:46;4.40;;;2.58;;
53271;SDS011;39160;48.580;7.756;2024-01-06T23:53:36;5.80;;;2.58;;
53271;SDS011;39160;48.580;7.756;2024-01-06T23:58:27;6.05;;;2.80;;
